Paron, AR (72122)

7:38 PM CDT on September 17, 2014 (GMT -0500)
HSV-East-Adoracion Subdivision | Change Station
CLOSE
Current Station
Personal Weather Station
Location: Hot Springs Village, AR
Elevation: 540 ft
Nearby Weather Stations

Elev 540 ft 34.65 °N, 92.91 °W | Updated 28 seconds ago

Partly Cloudy
Partly Cloudy
77.0 °F
Feels Like 78 °F
N
0.0
Wind Variable Wind from ESE
Gusts 6.0 mph

Today
High -- | Low -- °F
--% Chance of Precip.
Yesterday
High -- | Low -- °F
Precip. -- in
6:55 AM 7:15 PM
Waning Crescent, 32% visible
Pressure 29.90 in
Visibility 10.0 miles
Clouds Few 3500 ft
Heat Index 78 °F
Dew Point 72 °F
Humidity 84%
Rainfall 0.01 in
Snow Depth Not available.
UV 0 out of 12
Pollen 10.30 out of 12
Air Quality Not available.
Flu Activity Not available.
METAR KHOT 172353Z AUTO 10007KT 10SM FEW035 28/21 A2992 RMK AO2 SLP125 T02780211 10300 20272 56004

More Conditions Fewer Conditions

Pressure 29.90 in
Visibility 10.0 miles
Clouds Few 3500 ft
Heat Index 78 °F
Dew Point 72 °F
Humidity 84%
Rainfall 0.01 in
Snow Depth Not available.
UV 0 out of 12
Pollen 10.30 out of 12
Air Quality Not available.
Flu Activity Not available.
METAR KHOT 172353Z AUTO 10007KT 10SM FEW035 28/21 A2992 RMK AO2 SLP125 T02780211 10300 20272 56004

More Conditions Fewer Conditions

10-Day Weather Forecast

Almanac

Astronomy

Sep. 17, 2014 Rise Set
Actual Time 6:55 AM CDT 7:15 PM CDT
Civil Twilight 6:30 AM CDT 7:40 PM CDT
Nautical Twilight 6:00 AM CDT 8:10 PM CDT
Astronomical Twilight 5:30 AM CDT 8:40 PM CDT
Moon 1:06 AM CDT (9/17) 3:15 PM CDT (9/17)
Length of Visible Light 13h 10m
Length of Day
12h 19m
Tomorrow will be 2m 9s shorter.
Waning Crescent, 32% of the Moon is Illuminated
Today
Waning Crescent
Sep 24
New
Oct 1
First Quarter
Oct 8
Full
Oct 15
Last Quarter

Today's Extremes

State Highs State Lows

Community

WunderPhotos

Upload Photos

1,754,225 photos uploaded!

Nearby

Snow Depth

Station Depth Elevation
No new snow has been reported.

Earthquake Activity

City Distance Mag. Time & Date
No recent earthquake activity has been reported nearby.
Minimum magnitude displayed is 2.5.

Coastal Water Temperatures

Place Temperature
No Stations Reporting

Nearby Weather Stations